createdAt,value
2018-04-16T00:00:44.402Z,89.44
2018-04-16T00:01:44.838Z,88.96
2018-04-16T00:02:45.266Z,88.77
2018-04-16T00:03:45.696Z,89.15
2018-04-16T00:04:46.128Z,89.06
2018-04-16T00:05:46.561Z,88.39
2018-04-16T00:06:46.992Z,87.82
2018-04-16T00:07:47.431Z,88.10
2018-04-16T00:08:47.854Z,87.34
2018-04-16T00:09:48.284Z,87.24
2018-04-16T00:10:48.725Z,87.24
2018-04-16T00:11:49.145Z,87.53
2018-04-16T00:12:49.579Z,87.24
2018-04-16T00:13:50.014Z,87.58
2018-04-16T00:14:50.441Z,87.10
2018-04-16T00:15:50.870Z,86.91
2018-04-16T00:16:51.306Z,86.82
2018-04-16T00:17:51.736Z,87.05
2018-04-16T00:18:52.166Z,87.43
2018-04-16T00:19:52.597Z,87.15
2018-04-16T00:20:53.035Z,87.15
2018-04-16T00:21:53.466Z,87.53
2018-04-16T00:22:53.891Z,87.20
2018-04-16T00:23:54.324Z,86.53
2018-04-16T00:24:54.759Z,86.53
2018-04-16T00:25:55.187Z,85.96
2018-04-16T00:26:55.614Z,85.58
2018-04-16T00:27:56.050Z,85.58
2018-04-16T00:28:56.479Z,85.67
2018-04-16T00:29:56.908Z,85.96
2018-04-16T00:30:57.342Z,86.05
2018-04-16T00:31:57.776Z,85.86
2018-04-16T00:32:58.204Z,85.38
2018-04-16T00:33:58.632Z,85.58
2018-04-16T00:34:59.064Z,85.77
2018-04-16T00:35:59.497Z,85.58
2018-04-16T00:36:59.934Z,85.58
2018-04-16T00:38:00.360Z,85.48
2018-04-16T00:39:00.786Z,85.77
2018-04-16T00:40:01.218Z,85.58
2018-04-16T00:41:01.667Z,86.24
2018-04-16T00:42:02.088Z,86.05
2018-04-16T00:43:02.516Z,86.53
2018-04-16T00:44:02.942Z,86.15
2018-04-16T00:45:03.380Z,86.53
2018-04-16T00:46:03.803Z,86.63
2018-04-16T00:47:04.240Z,86.43
2018-04-16T00:48:04.664Z,86.53
2018-04-16T00:49:05.114Z,86.82
2018-04-16T00:50:05.529Z,86.63
2018-04-16T00:51:05.953Z,86.91
2018-04-16T00:52:06.395Z,87.01
2018-04-16T00:53:06.843Z,86.15
2018-04-16T00:54:07.305Z,85.96
2018-04-16T00:55:07.684Z,85.77
2018-04-16T00:56:08.110Z,85.58
2018-04-16T00:57:08.545Z,86.15
2018-04-16T00:58:08.975Z,86.24
2018-04-16T00:59:09.403Z,86.34
2018-04-16T01:00:09.839Z,86.24
2018-04-16T01:01:10.270Z,86.53
2018-04-16T01:02:10.698Z,86.82
2018-04-16T01:03:11.128Z,85.86
2018-04-16T01:04:11.560Z,84.77
2018-04-16T01:05:11.992Z,85.00
2018-04-16T01:06:12.427Z,85.15
2018-04-16T01:07:12.851Z,84.67
2018-04-16T01:08:13.285Z,84.81
2018-04-16T01:09:13.713Z,84.81
2018-04-16T01:10:14.149Z,85.67
2018-04-16T01:11:14.577Z,84.72
2018-04-16T01:12:15.005Z,85.58
2018-04-16T01:13:15.442Z,86.63
2018-04-16T01:14:15.867Z,86.91
2018-04-16T01:15:16.297Z,87.48
2018-04-16T01:16:16.729Z,87.20
2018-04-16T01:17:17.163Z,86.63
2018-04-16T01:18:17.592Z,86.53
2018-04-16T01:19:18.021Z,87.29
2018-04-16T01:20:18.450Z,87.53
2018-04-16T01:21:18.882Z,86.72
2018-04-16T01:22:19.324Z,86.82
2018-04-16T01:23:19.743Z,86.91
2018-04-16T01:24:20.173Z,85.53
2018-04-16T01:25:20.606Z,84.20
2018-04-16T01:26:21.036Z,83.91
2018-04-16T01:27:21.467Z,84.86
2018-04-16T01:28:21.896Z,84.20
2018-04-16T01:29:22.331Z,84.00
2018-04-16T01:30:22.765Z,83.91
2018-04-16T01:31:23.189Z,83.43
2018-04-16T01:32:23.626Z,82.38
2018-04-16T01:33:24.053Z,81.48
2018-04-16T01:34:24.488Z,81.01
2018-04-16T01:35:24.914Z,80.62
2018-04-16T01:36:25.358Z,80.76
2018-04-16T01:37:25.775Z,81.04
2018-04-16T01:38:26.205Z,80.76
2018-04-16T01:39:26.640Z,81.62
2018-04-16T01:40:27.061Z,81.52
2018-04-16T01:41:27.510Z,81.71
2018-04-16T01:42:27.934Z,81.04
2018-04-16T01:43:28.366Z,80.66
2018-04-16T01:44:28.790Z,80.66
2018-04-16T01:45:29.219Z,80.47
2018-04-16T01:46:29.653Z,80.09
2018-04-16T01:47:30.079Z,80.66
2018-04-16T01:48:30.511Z,81.71
2018-04-16T01:49:30.934Z,81.90
2018-04-16T01:50:31.366Z,81.81
2018-04-16T01:51:31.805Z,80.95
2018-04-16T01:52:32.234Z,81.14
2018-04-16T01:53:32.661Z,81.71
2018-04-16T01:54:33.089Z,82.19
2018-04-16T01:55:33.518Z,82.81
2018-04-16T01:56:33.946Z,82.57
2018-04-16T01:57:34.382Z,82.86
2018-04-16T01:58:34.809Z,82.76
2018-04-16T01:59:35.243Z,81.81
2018-04-16T02:00:35.683Z,82.76
2018-04-16T02:01:36.105Z,83.43
2018-04-16T02:02:36.533Z,83.14
2018-04-16T02:03:36.967Z,82.19
2018-04-16T02:04:37.391Z,81.14
2018-04-16T02:05:37.826Z,81.04
2018-04-16T02:06:38.253Z,81.04
2018-04-16T02:07:38.681Z,81.81
2018-04-16T02:08:39.123Z,80.85
2018-04-16T02:09:39.541Z,80.95
2018-04-16T02:10:39.988Z,81.90
2018-04-16T02:11:40.422Z,82.19
2018-04-16T02:12:40.828Z,82.42
2018-04-16T02:13:41.266Z,83.00
2018-04-16T02:14:41.693Z,83.34
2018-04-16T02:15:42.122Z,83.67
2018-04-16T02:16:42.552Z,84.14
2018-04-16T02:17:42.983Z,84.52
2018-04-16T02:18:43.413Z,85.19
2018-04-16T02:19:43.841Z,84.52
2018-04-16T02:20:44.276Z,84.39
2018-04-16T02:21:44.704Z,84.29
2018-04-16T02:22:45.134Z,83.91
2018-04-16T02:23:45.571Z,83.34
2018-04-16T02:24:45.992Z,83.24
2018-04-16T02:25:46.427Z,83.43
2018-04-16T02:26:46.870Z,83.91
2018-04-16T02:27:47.281Z,83.62
2018-04-16T02:28:47.721Z,84.39
2018-04-16T02:29:48.147Z,84.43
2018-04-16T02:30:48.581Z,84.72
2018-04-16T02:31:49.002Z,85.05
2018-04-16T02:32:49.442Z,85.10
2018-04-16T02:33:49.868Z,84.77
2018-04-16T02:34:50.299Z,84.91
2018-04-16T02:35:50.729Z,85.00
2018-04-16T02:36:51.164Z,85.19
2018-04-16T02:37:51.593Z,85.77
2018-04-16T02:38:52.018Z,85.67
2018-04-16T02:39:52.448Z,85.29
2018-04-16T02:40:52.884Z,84.39
2018-04-16T02:41:53.318Z,82.63
2018-04-16T02:42:53.741Z,81.58
2018-04-16T02:43:54.168Z,80.62
2018-04-16T02:44:54.604Z,80.15
2018-04-16T02:45:55.032Z,80.81
2018-04-16T02:46:55.463Z,81.01
2018-04-16T02:47:55.897Z,81.10
2018-04-16T02:48:56.323Z,81.71
2018-04-16T02:49:56.758Z,81.62
2018-04-16T02:50:57.183Z,81.90
2018-04-16T02:51:57.607Z,82.76
2018-04-16T02:52:58.050Z,82.57
2018-04-16T02:53:58.478Z,82.09
2018-04-16T02:54:58.905Z,82.38
2018-04-16T02:55:59.341Z,82.19
2018-04-16T02:56:59.774Z,82.48
2018-04-16T02:58:00.199Z,82.67
2018-04-16T02:59:00.623Z,83.14
2018-04-16T03:00:01.065Z,83.81
2018-04-16T03:01:01.499Z,84.23
2018-04-16T03:02:01.920Z,84.43
2018-04-16T03:03:02.346Z,84.77
2018-04-16T03:04:02.775Z,84.72
2018-04-16T03:05:03.206Z,85.05
2018-04-16T03:06:03.638Z,84.48
2018-04-16T03:07:04.063Z,84.29
2018-04-16T03:08:04.500Z,84.20
2018-04-16T03:09:04.938Z,83.14
2018-04-16T03:10:05.355Z,83.24
2018-04-16T03:11:05.802Z,83.62
2018-04-16T03:12:06.226Z,84.29
2018-04-16T03:13:06.668Z,84.72
2018-04-16T03:14:07.085Z,84.77
2018-04-16T03:15:07.516Z,84.58
2018-04-16T03:16:07.939Z,84.20
2018-04-16T03:17:08.371Z,83.72
2018-04-16T03:18:08.804Z,83.53
2018-04-16T03:19:09.230Z,83.72
2018-04-16T03:20:09.664Z,83.34
2018-04-16T03:21:10.090Z,83.34
2018-04-16T03:22:10.526Z,83.14
2018-04-16T03:23:10.955Z,83.53
2018-04-16T03:24:11.382Z,83.53
2018-04-16T03:25:11.814Z,83.91
2018-04-16T03:26:12.245Z,82.48
2018-04-16T03:27:12.676Z,82.38
2018-04-16T03:28:13.108Z,81.33
2018-04-16T03:29:13.532Z,81.01
2018-04-16T03:30:13.968Z,80.66
2018-04-16T03:31:14.402Z,80.81
2018-04-16T03:32:14.826Z,80.66
2018-04-16T03:33:15.255Z,81.04
2018-04-16T03:34:15.687Z,80.76
2018-04-16T03:35:16.121Z,81.52
2018-04-16T03:36:16.550Z,82.57
2018-04-16T03:37:16.977Z,82.86
2018-04-16T03:38:17.405Z,83.24
2018-04-16T03:39:17.838Z,83.43
2018-04-16T03:40:18.269Z,84.33
2018-04-16T03:41:18.698Z,83.81
2018-04-16T03:42:19.130Z,83.24
2018-04-16T03:43:19.558Z,82.76
2018-04-16T03:44:19.994Z,82.19
2018-04-16T03:45:20.426Z,82.57
2018-04-16T03:46:20.850Z,82.57
2018-04-16T03:47:21.285Z,82.38
2018-04-16T03:48:21.711Z,80.85
2018-04-16T03:49:22.139Z,81.14
2018-04-16T03:50:22.565Z,81.71
2018-04-16T03:51:23.013Z,82.38
2018-04-16T03:52:23.431Z,82.19
2018-04-16T03:53:23.867Z,83.43
2018-04-16T03:54:24.290Z,83.34
2018-04-16T03:55:24.720Z,83.14
2018-04-16T03:56:25.155Z,83.24
2018-04-16T03:57:25.585Z,83.24
2018-04-16T03:58:26.012Z,82.57
2018-04-16T03:59:26.443Z,82.29
2018-04-16T04:00:26.870Z,82.29
2018-04-16T04:01:27.301Z,82.19
2018-04-16T04:02:27.734Z,82.38
2018-04-16T04:03:28.162Z,81.71
2018-04-16T04:04:28.592Z,81.43
2018-04-16T04:05:29.019Z,81.71
2018-04-16T04:06:29.463Z,82.38
2018-04-16T04:07:29.915Z,81.52
2018-04-16T04:08:30.311Z,82.38
2018-04-16T04:09:30.749Z,82.09
2018-04-16T04:10:31.173Z,82.38
2018-04-16T04:11:31.603Z,82.48
2018-04-16T04:12:32.030Z,82.48
2018-04-16T04:13:32.472Z,82.09
2018-04-16T04:14:32.892Z,81.71
2018-04-16T04:15:33.333Z,82.19
2018-04-16T04:16:33.769Z,81.81
2018-04-16T04:17:34.189Z,80.85
2018-04-16T04:18:34.614Z,81.33
2018-04-16T04:19:35.045Z,82.38
2018-04-16T04:20:35.470Z,82.38
2018-04-16T04:21:35.907Z,81.90
2018-04-16T04:22:36.337Z,81.62
2018-04-16T04:23:36.760Z,81.24
2018-04-16T04:24:37.199Z,80.85
2018-04-16T04:25:37.624Z,81.62
2018-04-16T04:26:38.054Z,81.52
2018-04-16T04:27:38.486Z,82.38
2018-04-16T04:28:38.911Z,83.43
2018-04-16T04:29:39.345Z,83.05
2018-04-16T04:30:39.775Z,83.14
2018-04-16T04:31:40.217Z,83.14
2018-04-16T04:32:40.632Z,83.24
2018-04-16T04:33:41.067Z,83.43
2018-04-16T04:34:41.494Z,83.05
2018-04-16T04:35:41.921Z,82.67
2018-04-16T04:36:42.376Z,82.67
2018-04-16T04:37:42.783Z,83.43
2018-04-16T04:38:43.214Z,83.62
2018-04-16T04:39:43.646Z,83.72
2018-04-16T04:40:44.073Z,83.81
2018-04-16T04:41:44.503Z,83.14
2018-04-16T04:42:44.935Z,83.14
2018-04-16T04:43:45.362Z,83.24
2018-04-16T04:44:45.795Z,83.34
2018-04-16T04:45:46.228Z,82.57
2018-04-16T04:46:46.651Z,82.29
2018-04-16T04:47:47.088Z,82.38
2018-04-16T04:48:47.512Z,82.57
2018-04-16T04:49:47.941Z,82.38
2018-04-16T04:50:48.373Z,82.19
2018-04-16T04:51:48.816Z,82.29
2018-04-16T04:52:49.235Z,83.24
2018-04-16T04:53:49.664Z,83.43
2018-04-16T04:54:50.091Z,83.62
2018-04-16T04:55:50.527Z,83.34
2018-04-16T04:56:50.950Z,83.43
2018-04-16T04:57:51.382Z,82.57
2018-04-16T04:58:51.818Z,82.29
2018-04-16T04:59:52.243Z,82.38
2018-04-16T05:00:52.690Z,82.57
2018-04-16T05:01:53.106Z,81.71
2018-04-16T05:02:53.534Z,82.38
2018-04-16T05:03:53.961Z,82.38
2018-04-16T05:04:54.417Z,81.33
2018-04-16T05:05:54.819Z,81.52
2018-04-16T05:06:55.252Z,81.62
2018-04-16T05:07:55.675Z,82.67
2018-04-16T05:08:56.112Z,82.38
2018-04-16T05:09:56.542Z,81.62
2018-04-16T05:10:56.979Z,81.14
2018-04-16T05:11:57.400Z,82.00
2018-04-16T05:12:57.834Z,82.48
2018-04-16T05:13:58.256Z,82.48
2018-04-16T05:14:58.692Z,81.62
2018-04-16T05:15:59.140Z,81.52
2018-04-16T05:16:59.550Z,80.09
2018-04-16T05:17:59.988Z,81.04
2018-04-16T05:19:00.415Z,81.43
2018-04-16T05:20:00.841Z,82.57
2018-04-16T05:21:01.273Z,81.62
2018-04-16T05:22:01.700Z,81.90
2018-04-16T05:23:02.123Z,81.71
2018-04-16T05:24:02.561Z,80.85
2018-04-16T05:25:02.991Z,78.94
2018-04-16T05:26:03.416Z,77.89
2018-04-16T05:27:03.853Z,76.18
2018-04-16T05:28:04.279Z,76.46
2018-04-16T05:29:04.720Z,75.32
2018-04-16T05:30:05.147Z,75.32
2018-04-16T05:31:05.581Z,76.08
2018-04-16T05:32:05.998Z,74.84
2018-04-16T05:33:06.427Z,73.79
2018-04-16T05:34:06.859Z,74.46
2018-04-16T05:35:07.291Z,74.55
2018-04-16T05:36:07.717Z,75.79
2018-04-16T05:37:08.149Z,74.17
2018-04-16T05:38:08.582Z,73.88
2018-04-16T05:39:09.006Z,75.32
2018-04-16T05:40:09.437Z,73.79
2018-04-16T05:41:09.865Z,74.74
2018-04-16T05:42:10.297Z,74.27
2018-04-16T05:43:10.727Z,73.32
2018-04-16T05:44:11.162Z,71.88
2018-04-16T05:45:11.585Z,75.13
2018-04-16T05:46:12.017Z,75.22
2018-04-16T05:47:12.458Z,74.93
2018-04-16T05:48:12.877Z,74.59
2018-04-16T05:49:13.306Z,76.46
2018-04-16T05:50:13.735Z,74.93
2018-04-16T05:51:14.165Z,74.46
2018-04-16T05:52:14.595Z,74.93
2018-04-16T05:53:15.025Z,73.32
2018-04-16T05:54:15.454Z,74.08
2018-04-16T05:55:15.888Z,75.64
2018-04-16T05:56:16.319Z,78.18
2018-04-16T05:57:16.743Z,75.70
2018-04-16T05:58:17.180Z,76.03
2018-04-16T05:59:17.618Z,74.88
2018-04-16T06:00:18.062Z,74.74
2018-04-16T06:01:18.466Z,75.13
2018-04-16T06:02:18.897Z,73.12
2018-04-16T06:03:19.335Z,73.41
2018-04-16T06:04:19.759Z,73.98
2018-04-16T06:05:20.186Z,73.88
2018-04-16T06:06:20.618Z,74.37
2018-04-16T06:07:21.061Z,74.46
2018-04-16T06:08:21.476Z,73.79
2018-04-16T06:09:21.904Z,72.93
2018-04-16T06:10:22.342Z,73.32
2018-04-16T06:11:22.772Z,72.64
2018-04-16T06:12:23.201Z,73.92
2018-04-16T06:13:23.624Z,74.27
2018-04-16T06:14:24.060Z,74.74
2018-04-16T06:15:24.486Z,74.37
2018-04-16T06:16:24.920Z,74.27
2018-04-16T06:17:25.350Z,73.88
2018-04-16T06:18:25.777Z,74.27
2018-04-16T06:19:26.211Z,72.93
2018-04-16T06:20:26.639Z,73.22
2018-04-16T06:21:27.069Z,73.98
2018-04-16T06:22:27.504Z,73.69
2018-04-16T06:23:27.935Z,74.65
2018-04-16T06:24:28.355Z,73.07
2018-04-16T06:25:28.787Z,74.17
2018-04-16T06:26:29.218Z,70.64
2018-04-16T06:27:29.720Z,68.26
2018-04-16T06:28:30.080Z,69.49
2018-04-16T06:29:30.509Z,65.67
2018-04-16T06:30:30.945Z,66.63
2018-04-16T06:31:31.370Z,69.68
2018-04-16T06:32:31.801Z,69.49
2018-04-16T06:33:32.245Z,69.11
2018-04-16T06:34:32.661Z,71.88
2018-04-16T06:35:33.092Z,71.88
2018-04-16T06:36:33.524Z,72.36
2018-04-16T06:37:33.951Z,72.17
2018-04-16T06:38:34.386Z,72.36
2018-04-16T06:39:34.813Z,70.92
2018-04-16T06:40:35.242Z,71.41
2018-04-16T06:41:35.678Z,70.36
2018-04-16T06:42:36.101Z,69.21
2018-04-16T06:43:36.540Z,70.51
2018-04-16T06:44:36.963Z,64.91
2018-04-16T06:45:37.395Z,63.64
2018-04-16T06:46:37.835Z,64.50
2018-04-16T06:47:38.253Z,64.31
2018-04-16T06:48:38.685Z,65.45
2018-04-16T06:49:39.116Z,63.54
2018-04-16T06:50:39.565Z,62.43
2018-04-16T06:51:39.980Z,61.47
2018-04-16T06:52:40.403Z,62.21
2018-04-16T06:53:40.845Z,63.45
2018-04-16T06:54:41.268Z,60.58
2018-04-16T06:55:41.696Z,60.58
2018-04-16T06:56:42.134Z,59.73
2018-04-16T06:57:42.566Z,62.30
2018-04-16T06:58:42.987Z,62.68
2018-04-16T06:59:43.418Z,61.38
2018-04-16T07:00:43.865Z,62.71
2018-04-16T07:01:44.280Z,61.38
2018-04-16T07:02:44.714Z,59.85
2018-04-16T07:03:45.137Z,61.66
2018-04-16T07:04:45.575Z,64.53
2018-04-16T07:05:46.004Z,62.34
2018-04-16T07:06:46.429Z,62.30
2018-04-16T07:07:46.865Z,59.34
2018-04-16T07:08:47.301Z,59.25
2018-04-16T07:09:47.718Z,58.77
2018-04-16T07:10:48.200Z,58.29
2018-04-16T07:11:48.586Z,54.79
2018-04-16T07:12:49.013Z,55.75
2018-04-16T07:13:49.442Z,55.82
2018-04-16T07:14:49.870Z,56.96
2018-04-16T07:15:50.340Z,57.43
2018-04-16T07:16:50.742Z,53.53
2018-04-16T07:17:51.190Z,51.33
2018-04-16T07:18:51.600Z,51.52
2018-04-16T07:19:52.023Z,51.71
2018-04-16T07:20:52.460Z,52.48
2018-04-16T07:21:52.886Z,51.33
2018-04-16T07:22:53.314Z,51.23
2018-04-16T07:23:53.747Z,49.23
2018-04-16T07:24:54.178Z,50.28
2018-04-16T07:25:54.605Z,48.37
2018-04-16T07:26:55.042Z,46.11
2018-04-16T07:27:55.469Z,48.49
2018-04-16T07:28:55.892Z,51.17
2018-04-16T07:29:56.333Z,52.50
2018-04-16T07:30:56.755Z,51.93
2018-04-16T07:31:57.184Z,52.22
2018-04-16T07:32:57.616Z,53.36
2018-04-16T07:33:58.042Z,56.60
2018-04-16T07:34:58.480Z,57.75
2018-04-16T07:35:58.906Z,58.80
2018-04-16T07:36:59.334Z,57.94
2018-04-16T07:37:59.764Z,54.10
2018-04-16T07:39:00.199Z,53.27
2018-04-16T07:40:00.627Z,53.65
2018-04-16T07:41:01.059Z,55.08
2018-04-16T07:42:01.486Z,54.03
2018-04-16T07:43:01.921Z,53.17
2018-04-16T07:44:02.357Z,53.65
2018-04-16T07:45:02.778Z,52.38
2018-04-16T07:46:03.212Z,49.73
2018-04-16T07:47:03.640Z,49.33
2018-04-16T07:48:04.076Z,42.65
2018-04-16T07:49:04.523Z,44.20
2018-04-16T07:50:04.933Z,44.29
2018-04-16T07:51:05.360Z,43.41
2018-04-16T07:52:05.792Z,37.04
2018-04-16T07:53:06.229Z,38.17
2018-04-16T07:54:06.659Z,35.49
2018-04-16T07:55:07.081Z,32.26
2018-04-16T07:56:07.522Z,35.89
2018-04-16T07:57:07.944Z,39.61
2018-04-16T07:58:08.367Z,41.62
2018-04-16T07:59:08.808Z,44.58
2018-04-16T08:00:09.237Z,45.15
2018-04-16T08:01:09.703Z,45.15
2018-04-16T08:02:10.096Z,44.96
2018-04-16T08:03:10.523Z,44.20
2018-04-16T08:04:10.953Z,44.87
2018-04-16T08:05:11.394Z,43.15
2018-04-16T08:06:11.874Z,43.53
2018-04-16T08:07:12.247Z,44.27
2018-04-16T08:08:12.676Z,43.13
2018-04-16T08:09:13.111Z,41.69
2018-04-16T08:10:13.534Z,42.74
2018-04-16T08:11:13.970Z,44.58
2018-04-16T08:12:14.395Z,43.43
2018-04-16T08:13:14.831Z,44.20
2018-04-16T08:14:15.256Z,42.77
2018-04-16T08:15:15.695Z,45.15
2018-04-16T08:16:16.119Z,45.15
2018-04-16T08:17:16.549Z,43.62
2018-04-16T08:18:16.980Z,42.19
2018-04-16T08:19:17.449Z,41.81
2018-04-16T08:20:17.841Z,39.42
2018-04-16T08:21:18.273Z,39.32
2018-04-16T08:22:18.740Z,38.66
2018-04-16T08:23:19.138Z,40.37
2018-04-16T08:24:19.564Z,38.85
2018-04-16T08:25:19.995Z,37.71
2018-04-16T08:26:20.421Z,38.85
2018-04-16T08:27:20.850Z,39.32
2018-04-16T08:28:21.290Z,41.24
2018-04-16T08:29:21.720Z,40.00
2018-04-16T08:30:22.144Z,38.95
2018-04-16T08:31:22.577Z,39.90
2018-04-16T08:32:23.006Z,39.04
2018-04-16T08:33:23.436Z,39.14
2018-04-16T08:34:23.864Z,39.81
2018-04-16T08:35:24.302Z,39.71
2018-04-16T08:36:24.727Z,40.00
2018-04-16T08:37:25.161Z,37.90
2018-04-16T08:38:32.562Z,40.09
2018-04-16T08:39:26.030Z,39.32
2018-04-16T08:40:26.455Z,38.47
2018-04-16T08:41:26.879Z,38.18
2018-04-16T08:42:27.326Z,37.80
2018-04-16T08:43:27.742Z,41.24
2018-04-16T08:44:28.172Z,39.52
2018-04-16T08:45:28.607Z,39.32
2018-04-16T08:46:29.035Z,44.10
2018-04-16T08:47:29.466Z,42.10
2018-04-16T08:48:29.896Z,42.00
2018-04-16T08:49:30.326Z,42.48
2018-04-16T08:50:30.757Z,42.77
2018-04-16T08:51:31.186Z,41.71
2018-04-16T08:52:31.630Z,41.81
2018-04-16T08:53:32.049Z,42.57
2018-04-16T08:54:32.479Z,43.62
2018-04-16T08:55:32.908Z,41.24
2018-04-16T08:56:33.339Z,40.00
2018-04-16T08:57:33.774Z,39.81
2018-04-16T08:58:34.223Z,40.88
2018-04-16T08:59:34.682Z,38.95
2018-04-16T09:00:35.117Z,37.04
2018-04-16T09:01:35.508Z,39.23
2018-04-16T09:02:35.928Z,39.14
2018-04-16T09:03:36.365Z,38.47
2018-04-16T09:04:36.793Z,37.90
2018-04-16T09:05:37.220Z,38.95
2018-04-16T09:06:37.663Z,38.66
2018-04-16T09:07:38.090Z,39.35
2018-04-16T09:08:38.515Z,40.88
2018-04-16T09:09:38.946Z,45.84
2018-04-16T09:10:39.380Z,48.99
2018-04-16T09:11:39.812Z,46.48
2018-04-16T09:12:40.248Z,42.88
2018-04-16T09:13:40.678Z,42.79
2018-04-16T09:14:41.106Z,42.77
2018-04-16T09:15:41.531Z,40.09
2018-04-16T09:16:41.973Z,36.46
2018-04-16T09:17:42.401Z,36.77
2018-04-16T09:18:42.831Z,41.06
2018-04-16T09:19:43.264Z,42.02
2018-04-16T09:20:43.697Z,40.97
2018-04-16T09:21:44.128Z,41.93
2018-04-16T09:22:44.560Z,34.77
2018-04-16T09:23:44.993Z,36.87
2018-04-16T09:24:45.430Z,31.61
2018-04-16T09:25:45.858Z,36.19
2018-04-16T09:26:46.328Z,40.69
2018-04-16T09:27:46.726Z,42.50
2018-04-16T09:28:47.167Z,42.88
2018-04-16T09:29:47.585Z,41.83
2018-04-16T09:30:48.014Z,39.71
2018-04-16T09:31:48.453Z,38.49
2018-04-16T09:32:48.887Z,38.96
2018-04-16T09:33:49.313Z,37.63
2018-04-16T09:34:49.745Z,40.89
2018-04-16T09:35:50.177Z,42.97
2018-04-16T09:36:50.619Z,43.55
2018-04-16T09:37:51.065Z,42.71
2018-04-16T09:38:51.475Z,44.81
2018-04-16T09:39:51.908Z,42.11
2018-04-16T09:40:52.341Z,42.11
2018-04-16T09:41:52.775Z,45.39
2018-04-16T09:42:53.199Z,47.11
2018-04-16T09:43:53.638Z,42.33
2018-04-16T09:44:54.067Z,42.81
2018-04-16T09:45:54.501Z,42.33
2018-04-16T09:46:54.937Z,42.04
2018-04-16T09:47:55.367Z,39.37
2018-04-16T09:48:55.802Z,39.47
2018-04-16T09:49:56.234Z,41.75
2018-04-16T09:50:56.663Z,43.57
2018-04-16T09:51:57.097Z,45.29
2018-04-16T09:52:57.525Z,46.63
2018-04-16T09:53:57.967Z,48.95
2018-04-16T09:54:58.391Z,54.39
2018-04-16T09:55:58.868Z,53.82
2018-04-16T09:56:59.264Z,54.59
2018-04-16T09:57:59.702Z,55.35
2018-04-16T09:59:00.122Z,58.92
2018-04-16T10:00:00.563Z,59.97
2018-04-16T10:01:00.992Z,61.60
2018-04-16T10:02:01.440Z,61.38
2018-04-16T10:03:01.864Z,56.50
2018-04-16T10:04:02.299Z,54.21
2018-04-16T10:05:02.726Z,53.73
2018-04-16T10:06:03.218Z,56.88
2018-04-16T10:07:03.598Z,58.03
2018-04-16T10:08:04.034Z,60.99
2018-04-16T10:09:04.467Z,58.76
2018-04-16T10:10:04.900Z,55.54
2018-04-16T10:11:05.338Z,55.54
2018-04-16T10:12:05.773Z,60.01
2018-04-16T10:13:06.201Z,61.25
2018-04-16T10:14:06.634Z,60.01
2018-04-16T10:15:07.074Z,63.39
2018-04-16T10:16:07.504Z,64.15
2018-04-16T10:17:07.943Z,65.97
2018-04-16T10:18:08.373Z,64.66
2018-04-16T10:19:08.811Z,64.37
2018-04-16T10:20:09.248Z,63.99
2018-04-16T10:21:09.673Z,64.75
2018-04-16T10:22:10.130Z,67.53
2018-04-16T10:23:10.558Z,67.85
2018-04-16T10:24:10.979Z,68.62
2018-04-16T10:25:11.412Z,71.20
2018-04-16T10:26:11.853Z,72.00
2018-04-16T10:27:12.285Z,71.39
2018-04-16T10:28:12.733Z,69.38
2018-04-16T10:29:13.158Z,69.54
2018-04-16T10:30:13.591Z,66.76
2018-04-16T10:31:14.021Z,65.71
2018-04-16T10:32:14.461Z,64.43
2018-04-16T10:33:14.890Z,66.38
2018-04-16T10:34:15.330Z,62.94
2018-04-16T10:35:15.760Z,64.09
2018-04-16T10:36:16.200Z,68.42
2018-04-16T10:37:16.631Z,66.03
2018-04-16T10:38:17.073Z,65.71
2018-04-16T10:39:17.513Z,68.58
2018-04-16T10:40:17.945Z,68.10
2018-04-16T10:41:18.380Z,69.92
2018-04-16T10:42:18.814Z,64.85
2018-04-16T10:43:19.247Z,66.70
2018-04-16T10:44:19.687Z,69.86
2018-04-16T10:45:20.123Z,69.48
2018-04-16T10:46:20.559Z,70.34
2018-04-16T10:47:21.000Z,70.28
2018-04-16T10:48:21.435Z,72.71
2018-04-16T10:49:21.953Z,72.90
2018-04-16T10:50:22.318Z,73.57
2018-04-16T10:51:22.788Z,75.81
2018-04-16T10:52:23.182Z,74.43
2018-04-16T10:53:23.627Z,74.72
2018-04-16T10:54:24.053Z,74.11
2018-04-16T10:55:24.504Z,76.44
2018-04-16T10:56:24.937Z,76.82
2018-04-16T10:57:25.384Z,76.19
2018-04-16T10:58:25.812Z,75.71
2018-04-16T10:59:26.259Z,79.13
2018-04-16T11:00:26.695Z,80.32
2018-04-16T11:01:27.136Z,78.59
2018-04-16T11:02:27.582Z,78.49
2018-04-16T11:03:28.016Z,77.82
2018-04-16T11:04:28.466Z,78.82
2018-04-16T11:05:28.901Z,80.93
2018-04-16T11:06:29.347Z,81.07
2018-04-16T11:07:29.783Z,81.87
2018-04-16T11:08:30.223Z,82.10
2018-04-16T11:09:30.674Z,83.03
2018-04-16T11:10:31.117Z,83.94
2018-04-16T11:11:31.560Z,83.52
2018-04-16T11:12:32.004Z,82.65
2018-04-16T11:13:32.443Z,84.81
2018-04-16T11:14:32.900Z,83.18
2018-04-16T11:15:33.334Z,83.52
2018-04-16T11:16:33.791Z,85.15
2018-04-16T11:17:34.226Z,82.85
2018-04-16T11:18:34.678Z,82.75
2018-04-16T11:19:35.111Z,84.00
2018-04-16T11:20:35.568Z,84.52
2018-04-16T11:21:36.015Z,84.56
2018-04-16T11:22:36.454Z,84.67
2018-04-16T11:23:36.941Z,85.00
2018-04-16T11:24:37.342Z,84.58
2018-04-16T11:25:37.795Z,84.14
2018-04-16T11:26:38.245Z,85.00
2018-04-16T11:27:38.852Z,84.71
2018-04-16T11:28:39.127Z,81.70
2018-04-16T11:29:39.615Z,83.47
2018-04-16T11:30:40.037Z,84.61
2018-04-16T11:31:40.467Z,83.81
2018-04-16T11:32:40.894Z,84.04
2018-04-16T11:33:41.347Z,84.66
2018-04-16T11:34:41.795Z,84.66
2018-04-16T11:35:42.232Z,84.77
2018-04-16T11:36:42.742Z,83.19
2018-04-16T11:37:43.122Z,83.61
2018-04-16T11:38:43.566Z,83.33
2018-04-16T11:39:43.995Z,83.61
2018-04-16T11:40:44.446Z,83.75
2018-04-16T11:41:44.885Z,85.00
2018-04-16T11:42:45.346Z,84.85
2018-04-16T11:43:45.778Z,85.00
2018-04-16T11:44:46.205Z,85.33
2018-04-16T11:45:46.662Z,85.28
2018-04-16T11:46:47.099Z,85.52
2018-04-16T11:47:47.531Z,86.00
2018-04-16T11:48:47.979Z,85.33
2018-04-16T11:49:48.416Z,85.48
2018-04-16T11:50:48.875Z,85.28
2018-04-16T11:51:49.315Z,85.34
2018-04-16T11:52:49.752Z,85.96
2018-04-16T11:53:50.214Z,85.48
2018-04-16T11:54:50.647Z,85.10
2018-04-16T11:55:51.113Z,85.52
2018-04-16T11:56:51.531Z,85.77
2018-04-16T11:57:52.015Z,85.38
2018-04-16T11:58:52.431Z,86.15
2018-04-16T11:59:52.872Z,85.33
2018-04-16T12:00:53.292Z,86.44
2018-04-16T12:01:53.722Z,86.68
2018-04-16T12:02:54.187Z,86.33
2018-04-16T12:03:54.625Z,86.43
2018-04-16T12:04:55.083Z,86.28
2018-04-16T12:05:55.524Z,86.52
2018-04-16T12:06:55.932Z,86.68
2018-04-16T12:07:56.389Z,86.72
2018-04-16T12:08:56.835Z,86.62
2018-04-16T12:09:57.322Z,86.77
2018-04-16T12:10:57.722Z,86.88
2018-04-16T12:11:58.142Z,86.97
2018-04-16T12:12:58.591Z,87.01
2018-04-16T12:13:59.048Z,87.01
2018-04-16T12:14:59.480Z,86.63
2018-04-16T12:15:59.932Z,86.82
2018-04-16T12:17:00.363Z,86.72
2018-04-16T12:18:00.785Z,87.01
2018-04-16T12:19:01.262Z,86.48
2018-04-16T12:20:01.687Z,87.30
2018-04-16T12:21:02.120Z,86.96
2018-04-16T12:22:02.549Z,87.25
2018-04-16T12:23:02.996Z,87.15
2018-04-16T12:24:03.449Z,86.44
2018-04-16T12:25:03.873Z,87.25
2018-04-16T12:26:04.373Z,87.05
2018-04-16T12:27:04.752Z,87.25
2018-04-16T12:28:05.193Z,87.29
2018-04-16T12:29:05.633Z,86.81
2018-04-16T12:30:06.090Z,87.49
2018-04-16T12:31:06.521Z,86.72
2018-04-16T12:32:06.953Z,86.91
2018-04-16T12:33:07.437Z,87.39
2018-04-16T12:34:07.844Z,87.34
2018-04-16T12:35:08.272Z,87.01
2018-04-16T12:36:08.726Z,87.34
2018-04-16T12:37:09.176Z,87.19
2018-04-16T12:38:09.601Z,87.68
2018-04-16T12:39:10.131Z,87.44
2018-04-16T12:40:10.480Z,88.11
2018-04-16T12:41:10.916Z,87.35
2018-04-16T12:42:11.363Z,88.21
2018-04-16T12:43:11.800Z,88.11
2018-04-16T12:44:12.258Z,87.39
2018-04-16T12:45:12.681Z,87.54
2018-04-16T12:46:13.112Z,88.31
2018-04-16T12:47:13.617Z,88.21
2018-04-16T12:48:14.025Z,87.78
2018-04-16T12:49:14.444Z,88.11
2018-04-16T12:50:14.874Z,88.02
2018-04-16T12:51:15.419Z,88.31
2018-04-16T12:52:15.792Z,88.21
2018-04-16T12:53:16.234Z,87.82
2018-04-16T12:54:16.652Z,87.92
2018-04-16T12:55:17.075Z,88.49
2018-04-16T12:56:17.508Z,88.21
2018-04-16T12:57:17.945Z,88.02
2018-04-16T12:58:18.391Z,87.96